createdAt,value
2023-02-05T00:01:17.060Z,-1.66
2023-02-05T00:03:55.041Z,-1.65
2023-02-05T00:06:44.324Z,-1.63
2023-02-05T00:09:33.503Z,-1.64
2023-02-05T00:12:15.269Z,-1.64
2023-02-05T00:14:47.182Z,-1.65
2023-02-05T00:17:29.945Z,-1.68
2023-02-05T00:20:02.430Z,-1.70
2023-02-05T00:22:51.344Z,-1.70
2023-02-05T00:25:23.006Z,-1.70
2023-02-05T00:28:11.920Z,-1.67
2023-02-05T00:30:41.878Z,-1.65
2023-02-05T00:33:14.136Z,-1.64
2023-02-05T00:36:01.470Z,-1.63
2023-02-05T00:38:33.479Z,-1.59
2023-02-05T00:41:07.877Z,-1.59
2023-02-05T00:43:40.158Z,-1.62
2023-02-05T00:46:18.111Z,-1.61
2023-02-05T00:49:07.147Z,-1.62
2023-02-05T00:51:56.126Z,-1.66
2023-02-05T00:54:45.406Z,-1.70
2023-02-05T00:57:34.242Z,-1.71
2023-02-05T01:00:16.192Z,-1.73
2023-02-05T01:03:05.221Z,-1.75
2023-02-05T01:05:43.040Z,-1.75
2023-02-05T01:08:15.409Z,-1.77
2023-02-05T01:10:49.518Z,-1.78
2023-02-05T01:13:39.115Z,-1.82
2023-02-05T01:16:10.016Z,-1.81
2023-02-05T01:18:59.405Z,-1.83
2023-02-05T01:21:48.420Z,-1.85
2023-02-05T01:24:31.460Z,-1.87
2023-02-05T01:27:00.481Z,-1.88
2023-02-05T01:29:32.052Z,-1.89
2023-02-05T01:32:11.789Z,-1.89
2023-02-05T01:35:00.764Z,-1.88
2023-02-05T01:37:49.645Z,-1.87
2023-02-05T01:40:28.930Z,-1.88
2023-02-05T01:43:19.204Z,-1.86
2023-02-05T01:46:14.965Z,-1.83
2023-02-05T01:48:59.498Z,-1.77
2023-02-05T01:51:51.446Z,-1.76
2023-02-05T01:54:43.685Z,-1.74
2023-02-05T01:57:32.869Z,-1.73
2023-02-05T02:00:22.528Z,-1.75
2023-02-05T02:02:54.748Z,-1.77
2023-02-05T02:05:33.631Z,-1.82
2023-02-05T02:08:23.043Z,-1.88
2023-02-05T02:11:16.500Z,-1.94
2023-02-05T02:14:07.918Z,-1.99
2023-02-05T02:16:58.796Z,-2.05
2023-02-05T02:19:44.045Z,-2.07
2023-02-05T02:22:41.381Z,-2.08
2023-02-05T02:25:35.930Z,-2.07
2023-02-05T02:28:28.515Z,-2.04
2023-02-05T02:31:12.345Z,-1.98
2023-02-05T02:34:08.235Z,-1.95
2023-02-05T02:37:05.531Z,-1.97
2023-02-05T02:40:00.925Z,-2.02
2023-02-05T02:42:37.747Z,-2.05
2023-02-05T02:45:12.412Z,-2.06
2023-02-05T02:47:50.593Z,-2.09
2023-02-05T02:50:45.367Z,-2.12
2023-02-05T02:53:27.863Z,-2.13
2023-02-05T02:56:17.247Z,-2.14
2023-02-05T02:58:53.026Z,-2.16
2023-02-05T03:01:41.070Z,-2.18
2023-02-05T03:04:25.599Z,-2.18
2023-02-05T03:07:11.107Z,-2.18
2023-02-05T03:10:07.717Z,-2.19
2023-02-05T03:12:51.803Z,-2.21
2023-02-05T03:15:43.546Z,-2.23
2023-02-05T03:18:25.276Z,-2.24
2023-02-05T03:21:09.341Z,-2.26
2023-02-05T03:23:58.168Z,-2.28
2023-02-05T03:26:38.072Z,-2.29
2023-02-05T03:29:27.038Z,-2.31
2023-02-05T03:32:25.045Z,-2.33
2023-02-05T03:35:22.961Z,-2.31
2023-02-05T03:38:22.982Z,-2.29
2023-02-05T03:41:15.444Z,-2.28
2023-02-05T03:44:11.124Z,-2.28
2023-02-05T03:47:01.826Z,-2.30
2023-02-05T03:49:59.515Z,-2.35
2023-02-05T03:52:54.987Z,-2.38
2023-02-05T03:55:48.622Z,-2.40
2023-02-05T03:58:27.106Z,-2.43
2023-02-05T04:00:58.436Z,-2.45
2023-02-05T04:03:30.708Z,-2.49
2023-02-05T04:06:13.646Z,-2.53
2023-02-05T04:08:46.470Z,-2.58
2023-02-05T04:11:35.356Z,-2.65
2023-02-05T04:14:24.426Z,-2.71
2023-02-05T04:17:03.091Z,-2.74
2023-02-05T04:19:37.498Z,-2.79
2023-02-05T04:22:26.589Z,-2.85
2023-02-05T04:24:58.027Z,-2.90
2023-02-05T04:27:47.342Z,-2.95
2023-02-05T04:30:36.324Z,-2.98
2023-02-05T04:33:09.586Z,-2.97
2023-02-05T04:35:43.730Z,-2.97
2023-02-05T04:38:12.766Z,-2.98
2023-02-05T04:40:47.443Z,-3.00
2023-02-05T04:43:26.620Z,-2.99
2023-02-05T04:46:15.653Z,-2.98
2023-02-05T04:49:04.689Z,-2.97
2023-02-05T04:51:36.975Z,-2.99
2023-02-05T04:54:27.633Z,-2.98
2023-02-05T04:57:08.914Z,-2.97
2023-02-05T04:59:57.915Z,-2.97
2023-02-05T05:02:29.392Z,-2.98
2023-02-05T05:04:58.369Z,-3.00
2023-02-05T05:07:31.847Z,-3.01
2023-02-05T05:10:20.837Z,-3.03
2023-02-05T05:12:52.940Z,-3.04
2023-02-05T05:15:41.886Z,-3.04
2023-02-05T05:18:21.477Z,-3.04
2023-02-05T05:21:10.635Z,-3.03
2023-02-05T05:23:42.291Z,-3.01
2023-02-05T05:26:14.139Z,-3.01
2023-02-05T05:28:52.090Z,-3.02
2023-02-05T05:31:41.548Z,-3.02
2023-02-05T05:34:21.701Z,-3.02
2023-02-05T05:36:55.345Z,-3.03
2023-02-05T05:40:02.436Z,-3.03
2023-02-05T05:43:02.593Z,-3.03
2023-02-05T05:45:53.036Z,-3.05
2023-02-05T05:48:30.872Z,-3.06
2023-02-05T05:51:19.398Z,-3.06
2023-02-05T05:54:00.986Z,-3.06
2023-02-05T05:56:58.310Z,-3.05
2023-02-05T05:59:36.562Z,-3.07
2023-02-05T06:02:25.472Z,-3.09
2023-02-05T06:05:06.902Z,-3.12
2023-02-05T06:07:56.278Z,-3.14
2023-02-05T06:10:45.673Z,-3.17
2023-02-05T06:13:34.731Z,-3.23
2023-02-05T06:16:23.805Z,-3.30
2023-02-05T06:19:01.580Z,-3.36
2023-02-05T06:21:43.294Z,-3.44
2023-02-05T06:24:32.328Z,-3.52
2023-02-05T06:27:21.233Z,-3.59
2023-02-05T06:30:10.695Z,-3.66
2023-02-05T06:33:02.190Z,-3.73
2023-02-05T06:35:44.705Z,-3.81
2023-02-05T06:38:27.237Z,-3.87
2023-02-05T06:41:16.364Z,-3.93
2023-02-05T06:44:05.753Z,-3.99
2023-02-05T06:46:46.786Z,-4.03
2023-02-05T06:49:26.901Z,-4.06
2023-02-05T06:52:16.538Z,-4.10
2023-02-05T06:54:58.404Z,-4.15
2023-02-05T06:57:47.671Z,-4.19
2023-02-05T07:00:37.607Z,-4.08
2023-02-05T07:03:26.824Z,-3.76
2023-02-05T07:06:09.545Z,-3.44
2023-02-05T07:09:01.250Z,-3.09
2023-02-05T07:11:50.486Z,-2.81
2023-02-05T07:14:22.454Z,-2.55
2023-02-05T07:17:00.294Z,-2.34
2023-02-05T07:19:37.930Z,-2.17
2023-02-05T07:22:26.875Z,-2.01
2023-02-05T07:25:16.225Z,-1.85
2023-02-05T07:27:47.898Z,-1.63
2023-02-05T07:30:19.556Z,-1.44
2023-02-05T07:33:08.510Z,-1.29
2023-02-05T07:35:44.905Z,-1.09
2023-02-05T07:38:34.424Z,-0.95
2023-02-05T07:41:14.268Z,-0.84
2023-02-05T07:43:52.338Z,-0.76
2023-02-05T07:46:24.218Z,-0.73
2023-02-05T07:49:13.408Z,-0.69
2023-02-05T07:51:44.648Z,-0.63
2023-02-05T07:54:33.811Z,-0.54
2023-02-05T07:57:23.240Z,-0.41
2023-02-05T08:00:09.485Z,-0.19
2023-02-05T08:02:59.100Z,-0.02
2023-02-05T08:05:40.584Z,0.08
2023-02-05T08:08:24.984Z,0.30
2023-02-05T08:11:06.107Z,0.59
2023-02-05T08:13:55.114Z,0.55
2023-02-05T08:16:44.339Z,0.66
2023-02-05T08:19:18.018Z,0.60
2023-02-05T08:21:52.702Z,0.49
2023-02-05T08:24:35.650Z,0.52
2023-02-05T08:27:07.388Z,0.54
2023-02-05T08:29:42.881Z,0.56
2023-02-05T08:32:32.154Z,0.66
2023-02-05T08:35:05.432Z,0.72
2023-02-05T08:37:37.410Z,0.78
2023-02-05T08:40:12.725Z,0.69
2023-02-05T08:42:44.946Z,0.64
2023-02-05T08:45:28.279Z,0.61
2023-02-05T08:48:00.432Z,0.56
2023-02-05T08:50:40.552Z,0.63
2023-02-05T08:53:23.280Z,0.68
2023-02-05T08:55:59.569Z,0.73
2023-02-05T08:58:43.015Z,0.77
2023-02-05T09:01:21.114Z,0.62
2023-02-05T09:04:12.312Z,0.36
2023-02-05T09:06:50.837Z,0.25
2023-02-05T09:09:39.935Z,0.37
2023-02-05T09:12:11.569Z,0.40
2023-02-05T09:14:43.069Z,0.49
2023-02-05T09:17:14.459Z,0.48
2023-02-05T09:19:52.533Z,0.49
2023-02-05T09:22:24.087Z,0.39
2023-02-05T09:24:55.832Z,0.21
2023-02-05T09:27:24.927Z,-0.03
2023-02-05T09:30:15.470Z,-0.26
2023-02-05T09:32:47.896Z,-0.17
2023-02-05T09:35:19.620Z,0.04
2023-02-05T09:38:01.742Z,0.17
2023-02-05T09:40:39.381Z,0.13
2023-02-05T09:43:23.902Z,0.22
2023-02-05T09:46:20.348Z,0.47
2023-02-05T09:48:59.033Z,0.68
2023-02-05T09:51:43.564Z,0.90
2023-02-05T09:54:20.421Z,0.70
2023-02-05T09:57:17.592Z,0.38
2023-02-05T10:00:20.464Z,0.29
2023-02-05T10:02:58.322Z,0.55
2023-02-05T10:05:51.098Z,0.86
2023-02-05T10:08:29.014Z,1.16
2023-02-05T10:11:20.029Z,1.17
2023-02-05T10:13:56.041Z,1.15
2023-02-05T10:16:52.087Z,1.10
2023-02-05T10:19:51.515Z,1.04
2023-02-05T10:22:53.192Z,0.77
2023-02-05T10:25:37.655Z,0.34
2023-02-05T10:29:03.073Z,0.08
2023-02-05T10:32:00.240Z,-0.06
2023-02-05T10:34:55.930Z,-0.26
2023-02-05T10:37:45.328Z,-0.42
2023-02-05T10:40:41.423Z,-0.44
2023-02-05T10:43:40.798Z,-0.49
2023-02-05T10:46:33.632Z,-0.51
2023-02-05T10:49:19.994Z,-0.46
2023-02-05T10:51:59.662Z,-0.45
2023-02-05T10:54:30.389Z,-0.47
2023-02-05T11:00:19.393Z,-0.50
2023-02-05T11:03:16.260Z,-0.62
2023-02-05T11:05:58.689Z,-0.78
2023-02-05T11:08:40.326Z,-0.91
2023-02-05T11:11:24.557Z,-0.92
2023-02-05T11:14:01.233Z,-0.81
2023-02-05T11:16:38.566Z,-0.75
2023-02-05T11:19:28.733Z,-0.75
2023-02-05T11:22:27.197Z,-0.81
2023-02-05T11:25:14.273Z,-0.88
2023-02-05T11:27:55.269Z,-0.91
2023-02-05T11:30:52.010Z,-0.89
2023-02-05T11:33:31.371Z,-0.83
2023-02-05T11:36:23.548Z,-0.78
2023-02-05T11:38:56.892Z,-0.74
2023-02-05T11:41:30.438Z,-0.74
2023-02-05T11:44:03.766Z,-0.72
2023-02-05T11:46:45.199Z,-0.71
2023-02-05T11:49:24.537Z,-0.77
2023-02-05T11:52:11.736Z,-0.85
2023-02-05T11:54:48.480Z,-0.92
2023-02-05T11:57:32.656Z,-0.94
2023-02-05T12:00:22.450Z,-0.93
2023-02-05T12:03:07.213Z,-0.99
2023-02-05T12:06:05.434Z,-1.09
2023-02-05T12:08:42.829Z,-1.19
2023-02-05T12:11:29.583Z,-1.24
2023-02-05T12:14:13.506Z,-1.29
2023-02-05T12:17:00.005Z,-1.37
2023-02-05T12:19:42.629Z,-1.44
2023-02-05T12:22:29.284Z,-1.51
2023-02-05T12:25:14.973Z,-1.53
2023-02-05T12:27:57.518Z,-1.56
2023-02-05T12:30:48.254Z,-1.61
2023-02-05T12:33:49.652Z,-1.69
2023-02-05T12:36:38.388Z,-1.73
2023-02-05T12:39:24.604Z,-1.70
2023-02-05T12:42:05.583Z,-1.62
2023-02-05T12:44:48.459Z,-1.56
2023-02-05T12:47:38.896Z,-1.59
2023-02-05T12:50:26.824Z,-1.62
2023-02-05T12:53:10.556Z,-1.66
2023-02-05T12:55:51.212Z,-1.64
2023-02-05T12:58:21.535Z,-1.61
2023-02-05T13:01:17.107Z,-1.58
2023-02-05T13:04:11.440Z,-1.60
2023-02-05T13:06:55.142Z,-1.63
2023-02-05T13:09:42.655Z,-1.67
2023-02-05T13:12:17.696Z,-1.62
2023-02-05T13:15:04.387Z,-1.51
2023-02-05T13:18:00.290Z,-1.34
2023-02-05T13:21:00.365Z,-1.25
2023-02-05T13:24:10.081Z,-1.19
2023-02-05T13:27:01.987Z,-1.20
2023-02-05T13:29:35.031Z,-1.17
2023-02-05T13:32:30.579Z,-1.16
2023-02-05T13:35:21.899Z,-1.09
2023-02-05T13:38:14.364Z,-1.00
2023-02-05T13:41:20.275Z,-0.94
2023-02-05T13:44:24.432Z,-0.88
2023-02-05T13:47:36.990Z,-0.80
2023-02-05T13:50:47.605Z,-0.78
2023-02-05T13:53:51.578Z,-0.78
2023-02-05T13:56:48.282Z,-0.77
2023-02-05T13:59:24.055Z,-0.75
2023-02-05T14:02:01.110Z,-0.77
2023-02-05T14:04:54.203Z,-0.78
2023-02-05T14:07:27.451Z,-0.78
2023-02-05T14:10:09.250Z,-0.83
2023-02-05T14:12:42.117Z,-0.89
2023-02-05T14:15:38.725Z,-0.93
2023-02-05T14:19:14.212Z,-0.94
2023-02-05T14:22:07.386Z,-0.91
2023-02-05T14:24:44.237Z,-0.89
2023-02-05T14:27:54.593Z,-0.88
2023-02-05T14:30:50.640Z,-0.89
2023-02-05T14:33:38.582Z,-0.86
2023-02-05T14:37:12.510Z,-0.83
2023-02-05T14:39:50.567Z,-0.90
2023-02-05T14:42:27.186Z,-0.99
2023-02-05T14:45:03.375Z,-1.02
2023-02-05T14:47:58.178Z,-1.08
2023-02-05T14:50:53.624Z,-1.09
2023-02-05T14:53:41.597Z,-1.18
2023-02-05T14:56:34.541Z,-1.22
2023-02-05T14:59:22.433Z,-1.16
2023-02-05T15:01:57.356Z,-1.12
2023-02-05T15:04:51.817Z,-1.05
2023-02-05T15:07:27.911Z,-1.01
2023-02-05T15:10:16.578Z,-0.97
2023-02-05T15:13:11.021Z,-0.92
2023-02-05T15:16:19.560Z,-0.90
2023-02-05T15:19:00.973Z,-0.86
2023-02-05T15:21:36.771Z,-0.84
2023-02-05T15:24:18.063Z,-0.85
2023-02-05T15:27:02.807Z,-0.86
2023-02-05T15:29:46.499Z,-0.89
2023-02-05T15:32:33.152Z,-0.90
2023-02-05T15:35:29.059Z,-0.93
2023-02-05T15:38:14.489Z,-0.97
2023-02-05T15:40:47.215Z,-0.98
2023-02-05T15:43:21.821Z,-1.00
2023-02-05T15:46:02.342Z,-1.05
2023-02-05T15:48:44.456Z,-1.11
2023-02-05T15:51:26.471Z,-1.18
2023-02-05T15:54:05.623Z,-1.19
2023-02-05T15:56:55.213Z,-1.19
2023-02-05T15:59:39.968Z,-1.24
2023-02-05T16:02:21.480Z,-1.31
2023-02-05T16:05:21.298Z,-1.40
2023-02-05T16:08:04.883Z,-1.48
2023-02-05T16:10:57.089Z,-1.56
2023-02-05T16:13:37.228Z,-1.64
2023-02-05T16:16:17.766Z,-1.72
2023-02-05T16:19:01.033Z,-1.80
2023-02-05T16:21:35.790Z,-1.88
2023-02-05T16:24:26.291Z,-1.94
2023-02-05T16:27:04.796Z,-2.03
2023-02-05T16:29:49.025Z,-2.08
2023-02-05T16:32:28.203Z,-2.09
2023-02-05T16:35:12.571Z,-2.13
2023-02-05T16:38:08.549Z,-2.22
2023-02-05T16:40:42.492Z,-2.32
2023-02-05T16:46:30.769Z,-2.43
2023-02-05T16:49:23.876Z,-2.47
2023-02-05T16:51:56.025Z,-2.53
2023-02-05T16:54:31.165Z,-2.56
2023-02-05T16:57:07.154Z,-2.61
2023-02-05T16:59:47.140Z,-2.69
2023-02-05T17:02:33.134Z,-2.79
2023-02-05T17:05:07.284Z,-2.88
2023-02-05T17:07:55.501Z,-3.01
2023-02-05T17:10:49.504Z,-3.09
2023-02-05T17:13:43.196Z,-3.10
2023-02-05T17:16:27.392Z,-3.13
2023-02-05T17:19:30.447Z,-3.18
2023-02-05T17:22:22.197Z,-3.20
2023-02-05T17:24:54.832Z,-3.19
2023-02-05T17:27:41.287Z,-3.16
2023-02-05T17:30:21.294Z,-3.15
2023-02-05T17:33:20.489Z,-3.16
2023-02-05T17:36:03.901Z,-3.20
2023-02-05T17:38:55.576Z,-3.21
2023-02-05T17:41:56.493Z,-3.20
2023-02-05T17:44:39.215Z,-3.21
2023-02-05T17:47:21.008Z,-3.23
2023-02-05T17:50:13.179Z,-3.28
2023-02-05T17:53:06.930Z,-3.28
2023-02-05T17:55:55.820Z,-3.27
2023-02-05T17:58:37.504Z,-3.26
2023-02-05T18:01:36.868Z,-3.28
2023-02-05T18:04:05.971Z,-3.33
2023-02-05T18:06:49.143Z,-3.39
2023-02-05T18:09:38.598Z,-3.43
2023-02-05T18:12:12.332Z,-3.48
2023-02-05T18:14:40.991Z,-3.57
2023-02-05T18:17:22.760Z,-3.57
2023-02-05T18:19:57.153Z,-3.55
2023-02-05T18:22:29.596Z,-3.56
2023-02-05T18:25:19.749Z,-3.59
2023-02-05T18:28:08.817Z,-3.59
2023-02-05T18:30:57.819Z,-3.60
2023-02-05T18:33:48.686Z,-3.62
2023-02-05T18:36:23.496Z,-3.67
2023-02-05T18:38:56.946Z,-3.67
2023-02-05T18:41:31.496Z,-3.64
2023-02-05T18:44:21.768Z,-3.61
2023-02-05T18:47:13.338Z,-3.60
2023-02-05T18:49:52.142Z,-3.57
2023-02-05T18:52:41.850Z,-3.55
2023-02-05T18:55:34.802Z,-3.54
2023-02-05T18:58:18.110Z,-3.50
2023-02-05T19:01:11.085Z,-3.48
2023-02-05T19:04:02.782Z,-3.45
2023-02-05T19:06:42.986Z,-3.46
2023-02-05T19:09:31.940Z,-3.52
2023-02-05T19:12:15.405Z,-3.61
2023-02-05T19:14:55.073Z,-3.68
2023-02-05T19:17:27.977Z,-3.67
2023-02-05T19:20:18.457Z,-3.65
2023-02-05T19:22:58.637Z,-3.60
2023-02-05T19:25:41.736Z,-3.54
2023-02-05T19:28:27.345Z,-3.48
2023-02-05T19:31:13.961Z,-3.44
2023-02-05T19:34:12.335Z,-3.43
2023-02-05T19:36:51.721Z,-3.42
2023-02-05T19:39:39.568Z,-3.39
2023-02-05T19:42:30.717Z,-3.35
2023-02-05T19:45:12.180Z,-3.34
2023-02-05T19:47:51.488Z,-3.33
2023-02-05T19:50:51.568Z,-3.31
2023-02-05T19:53:44.583Z,-3.27
2023-02-05T19:56:18.980Z,-3.26
2023-02-05T19:59:16.303Z,-3.27
2023-02-05T20:01:49.292Z,-3.27
2023-02-05T20:04:53.568Z,-3.25
2023-02-05T20:07:25.589Z,-3.26
2023-02-05T20:09:56.654Z,-3.26
2023-02-05T20:12:29.042Z,-3.25
2023-02-05T20:15:00.824Z,-3.20
2023-02-05T20:17:32.665Z,-3.14
2023-02-05T20:20:12.641Z,-3.12
2023-02-05T20:22:49.679Z,-3.10
2023-02-05T20:25:24.358Z,-3.10
2023-02-05T20:27:55.712Z,-3.07
2023-02-05T20:30:45.563Z,-3.05
2023-02-05T20:33:16.822Z,-3.04
2023-02-05T20:35:56.590Z,-3.04
2023-02-05T20:38:34.220Z,-3.03
2023-02-05T20:41:12.675Z,-2.99
2023-02-05T20:43:46.311Z,-2.96
2023-02-05T20:46:17.824Z,-2.94
2023-02-05T20:48:55.802Z,-2.91
2023-02-05T20:51:45.046Z,-2.88
2023-02-05T20:54:21.442Z,-2.86
2023-02-05T20:56:59.617Z,-2.90
2023-02-05T20:59:48.190Z,-2.94
2023-02-05T21:02:27.397Z,-2.97
2023-02-05T21:04:59.490Z,-2.98
2023-02-05T21:07:35.317Z,-3.01
2023-02-05T21:10:15.000Z,-3.04
2023-02-05T21:12:43.780Z,-3.03
2023-02-05T21:15:12.609Z,-3.01
2023-02-05T21:17:43.974Z,-2.98
2023-02-05T21:20:13.109Z,-2.92
2023-02-05T21:22:56.327Z,-2.85
2023-02-05T21:25:36.441Z,-2.79
2023-02-05T21:28:14.342Z,-2.78
2023-02-05T21:30:43.152Z,-2.78
2023-02-05T21:33:14.465Z,-2.78
2023-02-05T21:35:54.510Z,-2.79
2023-02-05T21:38:30.997Z,-2.79
2023-02-05T21:41:11.698Z,-2.78
2023-02-05T21:43:41.140Z,-2.77
2023-02-05T21:46:20.987Z,-2.75
2023-02-05T21:48:54.577Z,-2.74
2023-02-05T21:51:29.040Z,-2.73
2023-02-05T21:54:03.044Z,-2.73
2023-02-05T21:56:51.941Z,-2.71
2023-02-05T21:59:40.876Z,-2.73
2023-02-05T22:02:12.943Z,-2.77
2023-02-05T22:04:51.279Z,-2.77
2023-02-05T22:07:24.344Z,-2.76
2023-02-05T22:09:58.141Z,-2.75
2023-02-05T22:12:36.090Z,-2.77
2023-02-05T22:15:25.125Z,-2.82
2023-02-05T22:18:12.726Z,-2.91
2023-02-05T22:20:52.316Z,-2.99
2023-02-05T22:23:23.273Z,-3.05
2023-02-05T22:25:54.843Z,-3.06
2023-02-05T22:28:33.566Z,-3.04
2023-02-05T22:31:03.887Z,-3.03
2023-02-05T22:33:38.806Z,-3.01
2023-02-05T22:36:22.992Z,-3.00
2023-02-05T22:38:54.733Z,-2.98
2023-02-05T22:41:36.477Z,-2.98
2023-02-05T22:44:18.855Z,-2.97
2023-02-05T22:46:47.669Z,-2.92
2023-02-05T22:49:18.881Z,-2.85
2023-02-05T22:51:56.804Z,-2.74
2023-02-05T22:54:28.241Z,-2.67
2023-02-05T22:57:06.429Z,-2.60
2023-02-05T22:59:40.043Z,-2.57
2023-02-05T23:02:18.815Z,-2.56
2023-02-05T23:04:53.239Z,-2.52
2023-02-05T23:07:35.184Z,-2.46
2023-02-05T23:10:13.019Z,-2.45
2023-02-05T23:13:02.184Z,-2.43
2023-02-05T23:15:36.962Z,-2.42
2023-02-05T23:18:10.035Z,-2.39
2023-02-05T23:20:51.095Z,-2.36
2023-02-05T23:23:40.454Z,-2.37
2023-02-05T23:26:20.273Z,-2.38
2023-02-05T23:28:52.756Z,-2.39
2023-02-05T23:31:22.945Z,-2.41
2023-02-05T23:33:57.112Z,-2.35
2023-02-05T23:36:28.649Z,-2.31
2023-02-05T23:39:08.376Z,-2.31
2023-02-05T23:41:38.823Z,-2.33
2023-02-05T23:44:13.982Z,-2.37
2023-02-05T23:46:47.530Z,-2.40
2023-02-05T23:49:21.169Z,-2.43
2023-02-05T23:51:54.397Z,-2.46
2023-02-05T23:54:25.971Z,-2.49
2023-02-05T23:57:00.516Z,-2.51
2023-02-05T23:59:49.421Z,-2.51
